Time;durP1;ratioP1;P1;durP2;ratioP2;P2;SDS_P1;SDS_P2;PMS_P1;PMS_P2;Temp;Humidity;BMP_temperature;BMP_pressure;BME280_temperature;BME280_humidity;BME280_pressure;Samples;Min_cycle;Max_cycle;Signal;HPM_P1;HPM_P2
2022/11/18 05:22:38;;;;;;;0.45;0.45;;;;;;;7.54;100.00;98685.75;5088986;28;20328;-69
2022/11/18 05:25:04;;;;;;;0.30;0.30;;;;;;;7.47;100.00;98686.72;5089103;28;20108;-69
2022/11/18 05:27:30;;;;;;;0.57;0.40;;;;;;;7.48;100.00;98691.00;5088805;28;20124;-69
2022/11/18 05:29:55;;;;;;;0.43;0.25;;;;;;;7.47;100.00;98697.31;5088759;28;20040;-69
2022/11/18 05:32:20;;;;;;;0.68;0.40;;;;;;;7.49;100.00;98705.88;5089188;28;20032;-69
2022/11/18 05:34:46;;;;;;;1.17;0.50;;;;;;;7.48;100.00;98702.41;5088875;28;20044;-69
2022/11/18 05:37:11;;;;;;;0.73;0.70;;;;;;;7.52;100.00;98708.16;5088629;28;20078;-69
2022/11/18 05:39:37;;;;;;;0.47;0.47;;;;;;;7.50;100.00;98708.34;5088823;28;20040;-69
2022/11/18 05:44:47;;;;;;;0.55;0.38;;;;;;;7.49;100.00;98717.28;5088698;28;20123;-68
2022/11/18 05:47:13;;;;;;;0.45;0.40;;;;;;;7.49;100.00;98716.47;5088856;28;20032;-68
2022/11/18 05:49:38;;;;;;;0.20;0.20;;;;;;;7.51;100.00;98725.06;5088705;28;20547;-68
2022/11/18 05:52:04;;;;;;;0.47;0.40;;;;;;;7.46;100.00;98735.41;5087156;28;20404;-70
2022/11/18 05:54:30;;;;;;;1.88;0.50;;;;;;;7.48;100.00;98728.09;5088563;28;20113;-70
2022/11/18 05:56:56;;;;;;;2.95;0.45;;;;;;;7.49;100.00;98730.53;5088292;28;20438;-69
2022/11/18 05:59:21;;;;;;;0.80;0.52;;;;;;;7.48;100.00;98734.22;5087201;28;20085;-70
2022/11/18 06:01:46;;;;;;;1.75;0.70;;;;;;;7.45;100.00;98736.44;5087948;28;20445;-69
2022/11/18 06:04:31;;;;;;;0.82;0.50;;;;;;;7.47;100.00;98745.00;5088414;28;20036;-70
2022/11/18 06:07:02;;;;;;;0.20;0.20;;;;;;;7.44;100.00;98734.78;5088217;28;20501;-70
2022/11/18 06:09:31;;;;;;;0.30;0.30;;;;;;;7.44;100.00;98734.78;5088170;28;20036;-69
2022/11/18 06:11:58;;;;;;;0.45;0.32;;;;;;;7.45;100.00;98741.72;5086668;28;20409;-69
2022/11/18 06:14:40;;;;;;;;;;;;;;;7.43;100.00;98743.72;5088555;28;20113;-70
2022/11/18 06:17:11;;;;;;;1.45;0.65;;;;;;;7.45;100.00;98744.38;5088294;28;19919;-69
2022/11/18 06:19:37;;;;;;;0.35;0.35;;;;;;;7.44;100.00;98748.84;5087930;28;20035;-69
2022/11/18 06:22:03;;;;;;;0.45;0.40;;;;;;;7.43;100.00;98751.69;5087798;28;20042;-69
2022/11/18 06:24:28;;;;;;;0.30;0.30;;;;;;;7.43;100.00;98760.44;5088102;28;20051;-69
2022/11/18 06:26:54;;;;;;;0.43;0.43;;;;;;;7.44;100.00;98758.63;5087826;28;20036;-69
2022/11/18 06:29:20;;;;;;;1.02;0.45;;;;;;;7.46;100.00;98761.91;5087944;28;20547;-69
2022/11/18 06:31:46;;;;;;;1.40;0.50;;;;;;;7.46;100.00;98770.69;5085663;28;20397;-69
2022/11/18 06:34:11;;;;;;;0.70;0.47;;;;;;;7.48;100.00;98773.13;5073781;28;20040;-69
2022/11/18 06:36:36;;;;;;;0.40;0.40;;;;;;;7.47;100.00;98772.31;5074067;28;20093;-71
2022/11/18 06:39:06;;;;;;;0.50;0.40;;;;;;;7.49;100.00;98778.22;5076553;28;20115;-70
2022/11/18 06:41:32;;;;;;;0.22;0.22;;;;;;;7.48;100.00;98787.19;5094031;28;20047;-70
2022/11/18 06:43:58;;;;;;;0.50;0.50;;;;;;;7.48;100.00;98781.09;5094289;28;20024;-70
2022/11/18 06:49:07;;;;;;;0.20;0.20;;;;;;;7.49;100.00;98794.13;5094212;28;20036;-70
2022/11/18 06:51:33;;;;;;;0.63;0.30;;;;;;;7.52;100.00;98801.72;5093728;28;20489;-70
2022/11/18 06:53:58;;;;;;;1.08;0.68;;;;;;;7.45;100.00;98792.88;5094241;28;20032;-70
2022/11/18 06:56:24;;;;;;;1.45;0.82;;;;;;;7.53;100.00;98807.84;5094440;28;20541;-69
2022/11/18 06:58:54;;;;;;;0.63;0.40;;;;;;;7.54;100.00;98812.13;5088121;28;20041;-70
2022/11/18 07:01:22;;;;;;;2.55;0.82;;;;;;;7.54;100.00;98809.47;5073571;28;20036;-61
2022/11/18 07:03:48;;;;;;;0.40;0.40;;;;;;;7.55;100.00;98809.28;5073720;28;20051;-60
2022/11/18 07:06:19;;;;;;;0.63;0.60;;;;;;;7.53;100.00;98818.44;5073743;28;20055;-60
2022/11/18 07:08:45;;;;;;;1.02;0.70;;;;;;;7.54;100.00;98828.03;5073608;28;20040;-70
2022/11/18 07:11:14;;;;;;;1.40;0.88;;;;;;;7.56;100.00;98829.50;5073222;28;20043;-70
2022/11/18 07:13:40;;;;;;;0.82;0.80;;;;;;;7.55;100.00;98829.66;5073528;28;20049;-70
2022/11/18 07:16:08;;;;;;;1.48;0.50;;;;;;;7.57;100.00;98835.63;5073364;28;20107;-70
2022/11/18 07:18:36;;;;;;;1.40;0.77;;;;;;;7.60;100.00;98837.88;5073678;28;20050;-71
2022/11/18 07:21:07;;;;;;;1.13;0.70;;;;;;;7.61;100.00;98836.84;5072937;28;20098;-70
2022/11/18 07:23:33;;;;;;;1.33;1.00;;;;;;;7.59;100.00;98842.34;5073407;28;20049;-70
2022/11/18 07:25:59;;;;;;;3.13;0.82;;;;;;;7.62;100.00;98844.63;5073179;28;20033;-70
2022/11/18 07:28:25;;;;;;;1.77;0.90;;;;;;;7.63;100.00;98840.16;5073234;28;20055;-70
2022/11/18 07:30:51;;;;;;;1.60;0.90;;;;;;;7.65;100.00;98848.75;5072741;28;20048;-70
2022/11/18 07:33:17;;;;;;;1.70;1.00;;;;;;;7.66;100.00;98858.31;5073229;28;20040;-71
2022/11/18 07:35:42;;;;;;;2.00;1.35;;;;;;;7.70;100.00;98854.31;5072948;28;20028;-70
2022/11/18 07:38:08;;;;;;;3.75;1.52;;;;;;;7.69;100.00;98865.88;5073012;28;20319;-70
2022/11/18 07:40:33;;;;;;;0.77;0.77;;;;;;;7.70;100.00;98866.75;5072579;28;20032;-70
2022/11/18 07:42:58;;;;;;;0.82;0.47;;;;;;;7.73;100.00;98871.66;5072932;28;20113;-70
2022/11/18 07:45:24;;;;;;;0.50;0.50;;;;;;;7.71;100.00;98877.13;5071721;28;20036;-70
2022/11/18 07:47:49;;;;;;;0.60;0.60;;;;;;;7.73;100.00;98872.47;5072925;28;20044;-70
2022/11/18 07:50:16;;;;;;;0.57;0.55;;;;;;;7.72;100.00;98873.47;5072469;28;20033;-70
2022/11/18 07:52:42;;;;;;;0.47;0.33;;;;;;;7.74;100.00;98887.34;5072863;28;20093;-70
2022/11/18 07:55:07;;;;;;;0.50;0.50;;;;;;;7.73;100.00;98884.91;5072550;28;20044;-69
2022/11/18 07:57:33;;;;;;;0.73;0.68;;;;;;;7.74;100.00;98891.84;5072531;28;20072;-71
2022/11/18 07:59:58;;;;;;;2.00;0.93;;;;;;;7.74;100.00;98894.50;5072630;28;20041;-69
2022/11/18 08:02:24;;;;;;;0.57;0.50;;;;;;;7.76;100.00;98897.75;5072457;28;20037;-70
2022/11/18 08:04:49;;;;;;;0.77;0.68;;;;;;;7.78;100.00;98901.06;5072560;28;20041;-70
2022/11/18 08:07:14;;;;;;;1.30;0.90;;;;;;;7.79;100.00;98900.06;5072423;28;20485;-70
2022/11/18 08:09:40;;;;;;;2.05;0.70;;;;;;;7.80;100.00;98907.00;5072344;28;20040;-70
2022/11/18 08:12:05;;;;;;;0.60;0.60;;;;;;;7.82;100.00;98900.53;5072034;28;20559;-70
2022/11/18 08:14:31;;;;;;;0.63;0.50;;;;;;;7.83;100.00;98903.97;5072299;28;20044;-70
2022/11/18 08:16:56;;;;;;;1.13;0.47;;;;;;;7.87;100.00;98908.69;5072232;28;20166;-70
2022/11/18 08:19:21;;;;;;;0.35;0.35;;;;;;;7.86;100.00;98909.72;5072255;28;20047;-70
2022/11/18 08:21:47;;;;;;;0.60;0.57;;;;;;;7.85;100.00;98916.03;5071724;28;20041;-70
2022/11/18 08:24:12;;;;;;;0.75;0.65;;;;;;;7.90;100.00;98915.47;5072068;28;20037;-70
2022/11/18 08:26:38;;;;;;;1.08;0.60;;;;;;;7.94;100.00;98926.50;5072036;28;20043;-70
2022/11/18 08:29:03;;;;;;;0.68;0.68;;;;;;;7.98;100.00;98922.47;5071935;28;20044;-70
2022/11/18 08:31:29;;;;;;;0.30;0.30;;;;;;;7.97;100.00;98920.84;5071595;28;20056;-70
2022/11/18 08:33:59;;;;;;;0.63;0.52;;;;;;;8.01;100.00;98922.09;5071931;28;20083;-70
2022/11/18 08:36:28;;;;;;;0.38;0.32;;;;;;;8.03;100.00;98925.41;5071839;28;20037;-70
2022/11/18 08:38:55;;;;;;;0.70;0.70;;;;;;;8.03;100.00;98920.09;5071717;28;20028;-70
2022/11/18 08:41:29;;;;;;;1.00;0.75;;;;;;;8.02;100.00;98923.72;5071590;28;20024;-70
2022/11/18 08:43:55;;;;;;;2.22;0.88;;;;;;;8.06;100.00;98925.00;5071681;28;20115;-70
2022/11/18 08:46:20;;;;;;;3.28;0.73;;;;;;;8.08;100.00;98926.44;5071635;28;20135;-70
2022/11/18 08:48:46;;;;;;;0.80;0.70;;;;;;;8.09;100.00;98929.94;5071763;28;20051;-70
2022/11/18 08:51:12;;;;;;;1.35;0.88;;;;;;;8.11;100.00;98930.56;5071286;28;20404;-70
2022/11/18 08:53:38;;;;;;;1.08;0.88;;;;;;;8.13;100.00;98939.16;5071636;28;20036;-70
2022/11/18 08:56:04;;;;;;;1.63;0.88;;;;;;;8.14;100.00;98943.44;5071318;28;20098;-70
2022/11/18 08:58:29;;;;;;;2.65;1.20;;;;;;;8.14;100.00;98944.25;5071697;28;20040;-70
2022/11/18 09:00:54;;;;;;;0.98;0.80;;;;;;;8.17;100.00;98940.44;5071303;28;20029;-71
2022/11/18 09:03:21;;;;;;;1.23;0.60;;;;;;;8.17;100.00;98943.09;5071565;28;20041;-70
2022/11/18 09:05:46;;;;;;;3.08;1.10;;;;;;;8.17;100.00;98945.72;5071529;28;20087;-70
2022/11/18 09:08:12;;;;;;;0.98;0.93;;;;;;;8.22;100.00;98951.31;5071581;28;20048;-70
2022/11/18 09:10:37;;;;;;;0.82;0.80;;;;;;;8.25;100.00;98953.56;5071007;28;20037;-70
2022/11/18 09:13:03;;;;;;;1.10;1.00;;;;;;;8.27;100.00;98950.72;5071413;28;20048;-70
2022/11/18 09:15:29;;;;;;;1.38;0.98;;;;;;;8.27;100.00;98956.00;5071434;28;20040;-71
2022/11/18 09:17:56;;;;;;;1.55;1.00;;;;;;;8.27;100.00;98959.50;5071426;28;20405;-70
2022/11/18 09:20:22;;;;;;;0.90;0.90;;;;;;;8.27;100.00;98963.97;5071036;28;20644;-71
2022/11/18 09:22:47;;;;;;;1.25;0.98;;;;;;;8.31;100.00;98963.41;5071298;28;20408;-71
2022/11/18 09:25:13;;;;;;;7.45;1.40;;;;;;;8.33;100.00;98961.38;5071235;28;20074;-70
2022/11/18 09:27:39;;;;;;;2.13;1.33;;;;;;;8.37;100.00;98962.69;5071653;28;20036;-70
2022/11/18 09:30:05;;;;;;;2.55;1.38;;;;;;;8.35;100.00;98962.06;5071190;28;20042;-70
2022/11/18 09:32:31;;;;;;;1.25;0.85;;;;;;;8.40;100.00;98964.94;5071041;28;20493;-70
2022/11/18 09:34:57;;;;;;;3.05;1.30;;;;;;;8.44;100.00;98965.41;5071217;28;20041;-70
2022/11/18 09:37:22;;;;;;;1.55;1.10;;;;;;;8.46;100.00;98957.25;5071164;28;20372;-69
2022/11/18 09:39:48;;;;;;;1.92;1.20;;;;;;;8.53;100.00;98960.78;5071114;28;20037;-70
2022/11/18 09:42:48;;;;;;;2.30;1.33;;;;;;;8.57;100.00;98970.81;5070740;28;20040;-71
2022/11/18 09:45:42;;;;;;;1.73;1.15;;;;;;;8.55;100.00;98972.03;5071153;28;20087;-71
2022/11/18 09:48:17;;;;;;;4.22;1.40;;;;;;;8.60;100.00;98980.22;5070740;28;20080;-70
2022/11/18 09:50:42;;;;;;;2.05;1.63;;;;;;;8.66;100.00;98985.59;5070667;28;20051;-71
2022/11/18 09:53:20;;;;;;;6.15;1.40;;;;;;;8.70;100.00;98991.38;5070646;28;20048;-71
2022/11/18 09:55:46;;;;;;;;;;;;;;;8.73;100.00;98992.81;5071510;28;20111;-71
2022/11/18 09:58:41;;;;;;;1.63;1.30;;;;;;;8.78;100.00;98996.53;5071080;28;19913;-71
2022/11/18 10:01:18;;;;;;;2.63;1.20;;;;;;;8.78;100.00;98993.06;5040483;28;20067;-72
2022/11/18 10:03:44;;;;;;;2.27;1.40;;;;;;;8.77;100.00;98989.56;5051267;28;20033;-71
2022/11/18 10:06:23;;;;;;;2.58;1.83;;;;;;;8.77;100.00;99002.84;5033010;28;20059;-71
2022/11/18 10:09:12;;;;;;;1.23;1.13;;;;;;;8.79;100.00;99003.47;5052528;28;20391;-71
2022/11/18 10:11:49;;;;;;;2.17;1.17;;;;;;;8.80;100.00;99004.28;5053751;28;20048;-71
2022/11/18 10:14:17;;;;;;;1.70;1.13;;;;;;;8.81;100.00;99014.75;5054876;28;20037;-72
2022/11/18 10:17:08;;;;;;;2.35;1.40;;;;;;;8.84;100.00;99017.00;5054402;28;20099;-72
2022/11/18 10:19:42;;;;;;;1.35;1.17;;;;;;;8.87;100.00;99019.28;5054474;28;20048;-72
2022/11/18 10:22:19;;;;;;;1.73;1.08;;;;;;;8.94;100.00;99014.84;5054201;28;20036;-71
2022/11/18 10:24:49;;;;;;;4.50;1.80;;;;;;;9.06;100.00;99019.63;5053448;28;20037;-71
2022/11/18 10:27:16;;;;;;;1.85;1.23;;;;;;;9.12;100.00;99022.31;5054479;28;20457;-71
2022/11/18 10:29:44;;;;;;;2.15;1.35;;;;;;;9.16;100.00;99022.75;5054344;28;20094;-70
2022/11/18 10:32:13;;;;;;;;;;;;;;;9.22;100.00;99025.47;5054371;28;20418;-70
2022/11/18 10:34:51;;;;;;;2.85;1.38;;;;;;;9.22;100.00;99022.00;5054301;28;19917;-71
2022/11/18 10:37:29;;;;;;;2.40;1.20;;;;;;;9.27;100.00;99018.75;5054056;28;20179;-71
2022/11/18 10:40:04;;;;;;;2.25;1.40;;;;;;;9.31;100.00;99020.00;5054105;28;20041;-70
2022/11/18 10:42:46;;;;;;;4.15;1.38;;;;;;;9.31;100.00;99031.44;5053865;28;20029;-70
2022/11/18 10:45:21;;;;;;;1.63;1.17;;;;;;;9.36;100.00;99030.88;5054057;28;20478;-71
2022/11/18 10:48:08;;;;;;;3.80;1.73;;;;;;;9.36;100.00;99029.03;5054186;28;20415;-70
2022/11/18 10:50:49;;;;;;;3.28;1.55;;;;;;;9.46;100.00;99034.84;5053672;28;20441;-70
2022/11/18 10:53:34;;;;;;;2.17;1.30;;;;;;;9.44;100.00;99034.19;5054003;28;20409;-71
2022/11/18 10:56:04;;;;;;;2.55;1.33;;;;;;;9.44;100.00;99036.84;5054032;28;20500;-71
2022/11/18 10:58:34;;;;;;;4.18;1.40;;;;;;;9.48;100.00;99029.31;5053856;28;20058;-71
2022/11/18 11:01:13;;;;;;;3.50;1.30;;;;;;;9.54;100.00;99031.19;5053500;28;20037;-72
2022/11/18 11:03:41;;;;;;;1.90;1.10;;;;;;;9.56;100.00;99029.16;5054069;28;20375;-73
2022/11/18 11:06:24;;;;;;;;;;;;;;;9.65;100.00;99030.66;5054297;28;20348;-71
2022/11/18 11:08:53;;;;;;;2.30;1.30;;;;;;;9.69;100.00;99033.72;5053733;28;19942;-71
2022/11/18 11:11:27;;;;;;;2.13;1.40;;;;;;;9.72;100.00;99025.38;5053186;28;20029;-71
2022/11/18 11:14:18;;;;;;;4.45;1.30;;;;;;;9.79;100.00;99032.34;5053543;28;20694;-72
2022/11/18 11:16:53;;;;;;;1.92;1.20;;;;;;;9.87;100.00;99030.53;5053432;28;20036;-70
2022/11/18 11:19:22;;;;;;;2.00;1.20;;;;;;;9.91;100.00;99032.63;5061507;28;20025;-71
2022/11/18 11:21:47;;;;;;;1.25;1.10;;;;;;;9.97;100.00;99039.78;5072945;28;20040;-71
2022/11/18 11:24:13;;;;;;;2.35;1.27;;;;;;;9.95;100.00;99031.19;5073306;28;20043;-71
2022/11/18 11:27:03;;;;;;;2.25;1.30;;;;;;;9.91;100.00;99039.75;5072098;28;20074;-71
2022/11/18 11:30:06;;;;;;;2.05;1.70;;;;;;;9.95;100.00;99047.16;5073673;28;20040;-71
2022/11/18 11:33:10;;;;;;;1.48;0.77;;;;;;;9.93;100.00;99041.22;5095495;22;20559;-64
2022/11/18 11:36:00;;;;;;;1.35;0.85;;;;;;;10.02;100.00;99044.50;5068282;28;20044;-65
2022/11/18 11:38:55;;;;;;;1.48;1.02;;;;;;;10.05;100.00;99050.28;5094270;28;20047;-65
2022/11/18 11:41:29;;;;;;;3.10;1.20;;;;;;;10.07;100.00;99052.72;5092330;28;20416;-65
2022/11/18 11:44:36;;;;;;;1.73;1.00;;;;;;;10.10;100.00;99054.16;5073593;28;20037;-65
2022/11/18 11:49:59;;;;;;;1.95;1.10;;;;;;;10.09;100.00;99047.19;5073250;28;20032;-65
2022/11/18 11:52:43;;;;;;;1.00;0.90;;;;;;;10.06;100.00;99059.88;5073021;28;20128;-65
2022/11/18 11:55:28;;;;;;;1.58;1.20;;;;;;;10.04;100.00;99061.09;5073217;28;20032;-64
2022/11/18 11:58:18;;;;;;;2.88;1.52;;;;;;;10.01;100.00;99062.31;5073242;28;20439;-65
2022/11/18 12:00:52;;;;;;;4.25;1.27;;;;;;;9.99;100.00;99063.53;5072782;28;20485;-64
2022/11/18 12:03:47;;;;;;;2.03;1.10;;;;;;;9.94;100.00;99058.81;5072934;28;20040;-65
2022/11/18 12:06:13;;;;;;;1.42;1.17;;;;;;;9.94;100.00;99058.81;5072999;28;20036;-65
2022/11/18 12:09:03;;;;;;;2.70;1.23;;;;;;;9.95;100.00;99065.75;5073081;28;20021;-65
2022/11/18 12:11:37;;;;;;;3.15;1.20;;;;;;;9.94;100.00;99064.13;5072052;28;20045;-65
2022/11/18 12:14:02;;;;;;;2.70;1.00;;;;;;;9.88;100.00;99056.94;5072803;28;20032;-65
2022/11/18 12:16:54;;;;;;;2.08;0.68;;;;;;;9.88;100.00;99067.56;5054928;28;20496;-65
2022/11/18 12:19:21;;;;;;;1.83;1.27;;;;;;;9.85;100.00;99067.97;5071538;28;20029;-66
2022/11/18 12:21:59;;;;;;;0.90;0.75;;;;;;;9.80;100.00;99059.78;5072285;28;20040;-65
2022/11/18 12:24:31;;;;;;;2.88;1.23;;;;;;;9.84;100.00;99071.63;5072537;28;20040;-65
2022/11/18 12:27:02;;;;;;;3.40;1.58;;;;;;;9.89;100.00;99071.06;5071246;28;20508;-65
2022/11/18 12:29:47;;;;;;;4.95;1.15;;;;;;;9.92;100.00;99074.16;5072535;28;20043;-65
2022/11/18 12:32:44;;;;;;;3.85;1.55;;;;;;;10.01;100.00;99078.28;5071708;28;20135;-65
2022/11/18 12:35:13;;;;;;;1.52;1.00;;;;;;;10.12;100.00;99076.91;5072361;28;20056;-65
2022/11/18 12:37:44;;;;;;;1.70;0.80;;;;;;;10.19;100.00;99067.09;5072500;28;20370;-65
2022/11/18 12:40:31;;;;;;;2.70;1.08;;;;;;;10.25;100.00;99076.16;5054161;28;20036;-65
2022/11/18 12:45:41;;;;;;;0.80;0.70;;;;;;;10.31;100.00;99072.72;5068782;28;20039;-65
2022/11/18 12:48:34;;;;;;;4.70;0.90;;;;;;;10.34;100.00;99072.28;5071926;28;20461;-65
2022/11/18 12:51:24;;;;;;;0.82;0.75;;;;;;;10.24;100.00;99071.88;5071787;28;20047;-65
2022/11/18 12:53:51;;;;;;;0.25;0.25;;;;;;;10.09;100.00;99073.81;5071805;28;20051;-65
2022/11/18 12:56:17;;;;;;;4.55;0.80;;;;;;;10.13;100.00;99067.06;5054239;28;20032;-65
2022/11/18 12:58:53;;;;;;;1.60;0.85;;;;;;;10.18;100.00;99075.28;5071978;28;20040;-65
2022/11/18 13:01:30;;;;;;;1.48;0.65;;;;;;;10.15;100.00;99081.00;5071606;28;20546;-65
2022/11/18 13:04:07;;;;;;;;;;;;;;;10.22;100.00;99081.84;5072324;28;20032;-65
2022/11/18 13:06:34;;;;;;;2.65;0.70;;;;;;;10.07;100.00;99087.31;5071708;28;20011;-66
2022/11/18 13:09:02;;;;;;;1.20;0.90;;;;;;;10.09;100.00;99074.63;5071954;28;20060;-65
2022/11/18 13:11:46;;;;;;;1.20;0.70;;;;;;;10.05;100.00;99082.19;5071377;28;20478;-65
2022/11/18 13:19:56;;;;;;;0.75;0.70;;;;;;;9.99;100.00;99087.50;5071580;28;20481;-66
2022/11/18 13:25:24;;;;;;;1.75;0.60;;;;;;;10.07;100.00;99079.34;5071762;28;20040;-65
2022/11/18 13:28:07;;;;;;;3.00;0.80;;;;;;;10.24;100.00;99082.50;5071777;28;20385;-66
2022/11/18 13:30:42;;;;;;;0.65;0.65;;;;;;;10.38;100.00;99073.56;5071396;28;20464;-65
2022/11/18 13:33:10;;;;;;;2.42;0.85;;;;;;;10.48;100.00;99081.13;5071441;28;20154;-65
2022/11/18 13:35:39;;;;;;;0.77;0.63;;;;;;;10.45;100.00;99077.03;5071666;28;20047;-65
2022/11/18 13:38:07;;;;;;;0.80;0.80;;;;;;;10.44;100.00;99075.41;5071627;28;20071;-66
2022/11/18 13:41:03;;;;;;;2.42;0.70;;;;;;;10.39;100.00;99083.16;5071344;28;20402;-65
2022/11/18 13:43:32;;;;;;;3.05;0.98;;;;;;;10.33;100.00;99083.97;5073919;28;20044;-66
2022/11/18 13:45:59;;;;;;;0.60;0.52;;;;;;;10.29;100.00;99074.72;5075611;28;20028;-66
2022/11/18 13:48:27;;;;;;;2.80;1.00;;;;;;;10.29;100.00;99070.22;5075647;28;20031;-65
2022/11/18 13:50:56;;;;;;;0.80;0.70;;;;;;;10.26;100.00;99069.81;5075383;28;20053;-64
2022/11/18 13:53:29;;;;;;;0.47;0.45;;;;;;;10.25;100.00;99070.84;5075158;28;20032;-65
2022/11/18 13:56:00;;;;;;;1.23;0.80;;;;;;;10.25;100.00;99078.84;5057554;28;20051;-65
2022/11/18 13:58:51;;;;;;;2.05;0.88;;;;;;;10.23;100.00;99072.88;5075294;28;20051;-65
2022/11/18 14:01:17;;;;;;;1.38;0.85;;;;;;;10.23;100.00;99067.53;5075200;28;20127;-65
2022/11/18 14:03:57;;;;;;;1.42;0.82;;;;;;;10.16;100.00;99067.47;5075180;28;20540;-64
2022/11/18 14:06:28;;;;;;;0.63;0.63;;;;;;;10.16;100.00;99075.47;5075172;28;20108;-65
2022/11/18 14:09:10;;;;;;;2.22;0.80;;;;;;;10.17;100.00;99078.94;5075096;28;20059;-64
2022/11/18 14:11:41;;;;;;;2.33;0.90;;;;;;;10.24;100.00;99080.66;5074788;28;20032;-64
2022/11/18 14:14:09;;;;;;;0.60;0.60;;;;;;;10.30;100.00;99079.03;5075061;28;20496;-64
2022/11/18 14:16:37;;;;;;;1.05;0.98;;;;;;;10.40;100.00;99084.00;5074948;28;20077;-64
2022/11/18 14:19:03;;;;;;;1.02;0.95;;;;;;;10.41;100.00;99083.78;5074996;28;20039;-55
2022/11/18 14:21:31;;;;;;;2.38;1.10;;;;;;;10.49;100.00;99088.91;5056673;28;20365;-64
2022/11/18 14:23:57;;;;;;;;;;;;;;;10.47;100.00;99080.31;5057460;28;20475;-64
2022/11/18 14:26:31;;;;;;;0.75;0.63;;;;;;;10.46;100.00;99094.66;5074853;28;19916;-64
2022/11/18 14:28:59;;;;;;;1.60;0.70;;;;;;;10.47;100.00;99096.28;5074763;28;20044;-64
2022/11/18 14:31:28;;;;;;;;;;;;;;;10.41;100.00;99098.94;5074667;28;20060;-63
2022/11/18 14:34:16;;;;;;;0.22;0.22;;;;;;;10.35;100.00;99099.72;5074489;28;19923;-64
2022/11/18 14:36:42;;;;;;;0.90;0.55;;;;;;;10.35;100.00;99099.72;5074509;28;20032;-64
2022/11/18 14:39:29;;;;;;;2.55;0.70;;;;;;;10.32;100.00;99107.09;5074575;28;20049;-64
2022/11/18 14:41:57;;;;;;;1.38;0.70;;;;;;;10.35;100.00;99105.06;5074185;28;20043;-64
2022/11/18 14:44:25;;;;;;;0.80;0.80;;;;;;;10.34;100.00;99106.91;5074368;28;20498;-65
2022/11/18 14:46:54;;;;;;;1.70;1.08;;;;;;;10.33;100.00;99106.09;5074326;28;20041;-64
2022/11/18 14:49:22;;;;;;;4.50;0.80;;;;;;;10.30;100.00;99117.13;5074363;28;20028;-64
2022/11/18 14:51:49;;;;;;;2.20;1.23;;;;;;;10.29;100.00;99117.31;5055945;28;20069;-64
2022/11/18 14:54:16;;;;;;;1.05;0.88;;;;;;;10.24;100.00;99125.09;5073845;28;20378;-64
2022/11/18 14:56:43;;;;;;;2.20;0.68;;;;;;;10.21;100.00;99123.59;5074252;28;20036;-64
2022/11/18 14:59:13;;;;;;;1.98;0.88;;;;;;;10.18;100.00;99129.34;5074347;28;20036;-64
2022/11/18 15:01:40;;;;;;;3.50;1.27;;;;;;;10.15;100.00;99134.22;5073761;28;20028;-64
2022/11/18 15:04:05;;;;;;;1.88;0.80;;;;;;;10.09;100.00;99129.69;5074017;28;20123;-65
2022/11/18 15:06:31;;;;;;;2.58;1.55;;;;;;;10.05;100.00;99139.91;5072969;28;20132;-65
2022/11/18 15:08:56;;;;;;;1.73;1.10;;;;;;;9.99;100.00;99143.34;5074083;28;20477;-65
2022/11/18 15:11:21;;;;;;;1.35;0.88;;;;;;;9.97;100.00;99143.53;5073591;28;20086;-64
2022/11/18 15:13:47;;;;;;;1.85;1.05;;;;;;;9.93;100.00;99149.47;5073827;28;20053;-65
2022/11/18 15:16:19;;;;;;;4.82;1.55;;;;;;;9.88;100.00;99144.72;5073949;28;20127;-65
2022/11/18 15:18:48;;;;;;;1.77;1.30;;;;;;;9.81;100.00;99143.84;5073833;28;20040;-64
2022/11/18 15:21:14;;;;;;;3.13;1.27;;;;;;;9.78;100.00;99137.09;5055548;28;20048;-64
2022/11/18 15:23:40;;;;;;;2.05;1.30;;;;;;;9.79;100.00;99145.91;5073499;28;20060;-64
2022/11/18 15:26:27;;;;;;;3.15;0.90;;;;;;;9.78;100.00;99141.59;5073626;28;20606;-64
2022/11/18 15:28:54;;;;;;;1.33;0.93;;;;;;;9.75;100.00;99149.94;5055596;28;20405;-64
2022/11/18 15:31:20;;;;;;;2.72;1.10;;;;;;;9.76;100.00;99152.41;5073361;28;20501;-64
2022/11/18 15:33:48;;;;;;;5.05;1.25;;;;;;;9.74;100.00;99153.63;5073329;28;20059;-64
2022/11/18 15:36:22;;;;;;;1.60;1.30;;;;;;;9.68;100.00;99152.56;5073448;28;20434;-65
2022/11/18 15:38:49;;;;;;;1.08;0.85;;;;;;;9.71;100.00;99160.13;5073459;28;20048;-65
2022/11/18 15:41:32;;;;;;;2.63;1.13;;;;;;;9.70;100.00;99157.69;5073146;28;20393;-64
2022/11/18 15:44:01;;;;;;;1.75;1.10;;;;;;;9.68;100.00;99163.19;5073380;28;20047;-65
2022/11/18 15:46:28;;;;;;;6.00;1.88;;;;;;;9.68;100.00;99157.06;5073211;28;20040;-65
2022/11/18 15:48:56;;;;;;;0.80;0.80;;;;;;;9.68;100.00;99165.84;5073157;28;20032;-64
2022/11/18 15:51:22;;;;;;;2.53;1.27;;;;;;;9.68;100.00;99170.34;5072823;28;20041;-65
2022/11/18 15:53:48;;;;;;;1.85;1.10;;;;;;;9.65;100.00;99168.91;5072923;28;20054;-64
2022/11/18 15:56:17;;;;;;;4.70;1.10;;;;;;;9.62;100.00;99165.81;5073024;28;20481;-64
2022/11/18 15:58:53;;;;;;;3.25;1.60;;;;;;;9.62;100.00;99173.78;5073052;28;20128;-64
2022/11/18 16:01:19;;;;;;;3.38;1.60;;;;;;;9.59;100.00;99176.84;5055134;28;20066;-65
2022/11/18 16:03:44;;;;;;;3.58;1.30;;;;;;;9.59;100.00;99168.88;5072994;28;20036;-65
2022/11/18 16:06:10;;;;;;;3.28;1.40;;;;;;;9.58;100.00;99175.16;5072175;28;20044;-65
2022/11/18 16:08:36;;;;;;;2.53;1.38;;;;;;;9.56;100.00;99177.22;5073093;28;20082;-64
2022/11/18 16:13:45;;;;;;;2.83;1.08;;;;;;;9.52;100.00;99179.44;5073040;28;20048;-69
2022/11/18 16:16:18;;;;;;;1.48;0.98;;;;;;;9.51;100.00;99177.78;5071092;28;20386;-69
2022/11/18 16:18:43;;;;;;;1.90;1.30;;;;;;;9.48;100.00;99173.69;5072500;28;20036;-69
2022/11/18 16:21:09;;;;;;;1.42;1.05;;;;;;;9.44;100.00;99177.72;5071884;28;20062;-70
2022/11/18 16:23:34;;;;;;;1.58;0.85;;;;;;;9.43;100.00;99178.75;5054755;28;20102;-71
2022/11/18 16:26:00;;;;;;;4.35;0.93;;;;;;;9.40;100.00;99178.31;5072395;28;20591;-71
2022/11/18 16:28:26;;;;;;;1.50;0.80;;;;;;;9.41;100.00;99187.94;5072085;28;20089;-71
2022/11/18 16:33:35;;;;;;;4.72;2.05;;;;;;;9.38;100.00;99190.97;5072131;28;20117;-71
2022/11/18 16:36:00;;;;;;;1.50;1.13;;;;;;;9.36;100.00;99188.50;5070987;28;20070;-71
2022/11/18 16:38:26;;;;;;;1.95;1.00;;;;;;;9.35;100.00;99188.69;5072040;28;20107;-71
2022/11/18 16:40:55;;;;;;;1.55;1.30;;;;;;;9.37;100.00;99189.31;5071234;28;20076;-72
2022/11/18 16:43:22;;;;;;;2.10;1.00;;;;;;;9.34;100.00;99187.88;5071726;28;20063;-71
2022/11/18 16:45:53;;;;;;;2.00;1.17;;;;;;;9.34;100.00;99193.19;5072143;28;20036;-72
2022/11/18 16:48:20;;;;;;;0.60;0.60;;;;;;;9.35;100.00;99201.97;5072403;28;20102;-71
2022/11/18 16:51:16;;;;;;;1.07;0.83;;;;;;;9.34;100.00;99198.50;5071811;28;20485;-71
2022/11/18 16:53:42;;;;;;;1.40;1.00;;;;;;;9.31;100.00;99198.06;5072060;28;20115;-71
2022/11/18 16:56:08;;;;;;;1.73;1.00;;;;;;;9.31;100.00;99206.84;5072082;28;20071;-71
2022/11/18 16:58:33;;;;;;;1.60;1.00;;;;;;;9.33;100.00;99212.81;5072023;28;20032;-71
2022/11/18 17:00:58;;;;;;;2.33;1.02;;;;;;;9.30;100.00;99210.53;5071702;28;20081;-70
2022/11/18 17:03:24;;;;;;;0.88;0.70;;;;;;;9.32;100.00;99218.28;5071934;28;20032;-71
2022/11/18 17:05:49;;;;;;;1.40;0.90;;;;;;;9.29;100.00;99224.00;5072206;28;20070;-71
2022/11/18 17:08:15;;;;;;;2.38;0.80;;;;;;;9.28;100.00;99225.03;5072026;28;20036;-71
2022/11/18 17:10:40;;;;;;;0.80;0.80;;;;;;;9.23;100.00;99223.75;5071613;28;20036;-71
2022/11/18 17:13:05;;;;;;;2.30;0.90;;;;;;;9.21;100.00;99228.44;5071958;28;20546;-71
2022/11/18 17:15:31;;;;;;;1.75;1.00;;;;;;;9.22;100.00;99226.59;5071926;28;20074;-71
2022/11/18 17:17:56;;;;;;;1.88;1.30;;;;;;;9.20;100.00;99229.44;5071977;28;20123;-71
2022/11/18 17:20:21;;;;;;;0.80;0.73;;;;;;;9.20;100.00;99236.59;5070346;28;20106;-71
2022/11/18 17:22:47;;;;;;;2.42;1.08;;;;;;;9.21;100.00;99240.91;5071905;28;20036;-71
2022/11/18 17:25:12;;;;;;;3.20;0.95;;;;;;;9.18;100.00;99238.59;5053845;28;20101;-72
2022/11/18 17:27:37;;;;;;;1.35;1.02;;;;;;;9.15;100.00;99239.00;5037438;28;20044;-72
2022/11/18 17:30:03;;;;;;;1.42;1.20;;;;;;;9.13;100.00;99241.03;5071797;28;20040;-72
2022/11/18 17:32:29;;;;;;;1.55;1.08;;;;;;;9.13;100.00;99241.03;5053874;28;20037;-72
2022/11/18 17:34:54;;;;;;;1.90;1.35;;;;;;;9.12;100.00;99239.34;5071627;28;20111;-72
2022/11/18 17:37:20;;;;;;;5.50;1.65;;;;;;;9.15;100.00;99239.00;5071895;28;20381;-71